Terminal Aerodrome Forecast
Issued by NWS

Home | Current Version | Previous Version | Graphics & Text | Print | Product List | Glossary On
Versions: 1 2 3 4 5 6 7 8 9 10 11 12 13 14
000
FTUS43 KUNR 160528
TAFGCC
TAF
KGCC 160528Z 1606/1706 32016G26KT 2SM -SN BR OVC006
     FM161700 35014KT P6SM OVC025
     FM170100 31007KT P6SM OVC050
      AMD NOT SKED=

USA.gov is the U.S. government's official web portal to all federal, state and local government web resources and services.